Time;durP1;ratioP1;P1;durP2;ratioP2;P2;SDS_P1;SDS_P2;PMS_P1;PMS_P2;Temp;Humidity;BMP_temperature;BMP_pressure;BME280_temperature;BME280_humidity;BME280_pressure;Samples;Min_cycle;Max_cycle;Signal;HPM_P1;HPM_P2
2022/02/27 00:00:36;;;;;;;13.20;7.93;;;-0.90;1.00;;;;;;5077595;28;20471;-59
2022/02/27 00:03:04;;;;;;;12.30;7.00;;;-0.90;99.90;;;;;;5078018;28;20473;-58
2022/02/27 00:05:33;;;;;;;10.60;7.07;;;-0.90;99.90;;;;;;5077221;28;20839;-59
2022/02/27 00:08:00;;;;;;;12.03;7.13;;;-1.00;1.00;;;;;;5078187;28;20507;-55
2022/02/27 00:10:31;;;;;;;11.67;6.67;;;-1.00;99.90;;;;;;5077526;28;20502;-60
2022/02/27 00:12:58;;;;;;;9.00;6.97;;;-1.10;19.30;;;;;;5077516;28;20522;-59
2022/02/27 00:15:25;;;;;;;16.20;7.13;;;-1.00;1.00;;;;;;5077079;28;20580;-59
2022/02/27 00:17:55;;;;;;;19.90;8.53;;;-1.00;99.90;;;;;;5077551;28;20495;-58
2022/02/27 00:20:24;;;;;;;12.17;8.07;;;-1.00;99.90;;;;;;5077900;28;20512;-59
2022/02/27 00:22:51;;;;;;;11.90;7.10;;;-1.10;99.90;;;;;;5077591;28;20465;-58
2022/02/27 00:25:18;;;;;;;13.10;7.57;;;-1.10;1.00;;;;;;5077694;28;20474;-56
2022/02/27 00:27:51;;;;;;;13.77;8.37;;;-1.20;1.00;;;;;;5076985;28;20471;-55
2022/02/27 00:30:18;;;;;;;11.70;7.47;;;-1.10;99.90;;;;;;5077734;28;20464;-59
2022/02/27 00:32:45;;;;;;;12.73;5.87;;;-1.10;99.90;;;;;;5077259;28;20465;-56
2022/02/27 00:35:12;;;;;;;10.30;6.60;;;-1.00;99.90;;;;;;5077569;28;20468;-55
2022/02/27 00:37:39;;;;;;;10.47;6.27;;;-1.10;99.90;;;;;;5076889;28;20472;-57
2022/02/27 00:40:10;;;;;;;10.67;6.40;;;-1.20;99.90;;;;;;5076971;28;20464;-57
2022/02/27 00:42:37;;;;;;;12.83;7.20;;;-1.20;1.00;;;;;;5076874;28;20772;-59
2022/02/27 00:45:08;;;;;;;18.43;6.50;;;-1.10;99.90;;;;;;5077529;28;20466;-59
2022/02/27 00:47:34;;;;;;;13.60;6.60;;;-1.20;99.90;;;;;;5076921;28;20469;-59
2022/02/27 00:50:04;;;;;;;18.73;6.70;;;-1.30;1.00;;;;;;5077611;28;20463;-58
2022/02/27 00:52:31;;;;;;;9.77;5.70;;;-1.40;99.90;;;;;;5076544;28;20470;-56
2022/02/27 00:55:01;;;;;;;9.40;6.63;;;-1.40;99.90;;;;;;5077150;28;20547;-59
2022/02/27 00:57:29;;;;;;;10.60;6.00;;;-1.40;99.90;;;;;;5076551;28;20587;-56
2022/02/27 00:59:57;;;;;;;15.10;7.30;;;-1.40;68.80;;;;;;5077606;28;20872;-57
2022/02/27 01:02:26;;;;;;;12.83;5.50;;;-1.50;1.00;;;;;;5077501;28;20494;-58
2022/02/27 01:04:53;;;;;;;19.37;6.33;;;-1.40;99.90;;;;;;5077184;28;20863;-60
2022/02/27 01:07:20;;;;;;;11.13;5.40;;;-1.50;99.90;;;;;;5076497;28;20518;-58
2022/02/27 01:09:46;;;;;;;11.00;6.07;;;-1.50;99.90;;;;;;5076772;28;20466;-56
2022/02/27 01:12:14;;;;;;;10.30;5.63;;;-1.50;1.00;;;;;;5077044;28;20465;-54
2022/02/27 01:14:41;;;;;;;9.93;6.20;;;-1.50;1.00;;;;;;5076653;28;20500;-57
2022/02/27 01:17:08;;;;;;;12.90;7.90;;;-1.50;1.00;;;;;;5076661;28;20578;-59
2022/02/27 01:19:37;;;;;;;15.80;6.93;;;-1.50;1.00;;;;;;5079484;28;20465;-53
2022/02/27 01:22:05;;;;;;;16.70;8.53;;;-1.50;1.00;;;;;;5080723;28;20797;-56
2022/02/27 01:24:32;;;;;;;14.93;8.27;;;-1.50;99.90;;;;;;5076464;28;20815;-54
2022/02/27 01:26:59;;;;;;;17.30;7.57;;;-1.50;99.90;;;;;;5076891;28;20532;-55
2022/02/27 01:29:26;;;;;;;20.07;8.77;;;-1.50;6.10;;;;;;5076342;28;20515;-57
2022/02/27 01:31:53;;;;;;;12.10;7.47;;;-1.40;99.90;;;;;;5077013;28;20478;-56
2022/02/27 01:34:19;;;;;;;17.23;7.40;;;-1.50;99.90;;;;;;5076745;28;20524;-57
2022/02/27 01:36:48;;;;;;;14.03;6.87;;;-1.50;99.90;;;;;;5076678;28;20462;-60
2022/02/27 01:39:15;;;;;;;14.60;5.70;;;-1.40;99.90;;;;;;5076176;28;20467;-60
2022/02/27 01:41:42;;;;;;;14.77;8.03;;;-1.50;99.90;;;;;;5076330;28;20892;-59
2022/02/27 01:44:09;;;;;;;10.93;6.23;;;-1.50;1.00;;;;;;5076643;28;20557;-60
2022/02/27 01:46:36;;;;;;;13.90;7.00;;;-1.50;99.90;;;;;;5076494;28;20461;-60
2022/02/27 01:49:03;;;;;;;12.17;6.57;;;-1.50;99.90;;;;;;5076627;28;20810;-60
2022/02/27 01:51:30;;;;;;;13.43;6.60;;;-1.50;1.00;;;;;;5078735;28;20796;-60
2022/02/27 01:53:59;;;;;;;16.67;7.40;;;-1.50;1.00;;;;;;5080078;28;20463;-61
2022/02/27 01:56:26;;;;;;;14.33;7.03;;;-1.50;1.00;;;;;;5080559;28;20494;-56
2022/02/27 01:58:53;;;;;;;9.63;6.23;;;-1.60;1.00;;;;;;5080247;28;20470;-61
2022/02/27 02:01:19;;;;;;;11.50;6.43;;;-1.60;1.00;;;;;;5079236;28;20465;-61
2022/02/27 02:03:47;;;;;;;10.53;6.27;;;-1.60;99.90;;;;;;5080121;28;20511;-60
2022/02/27 02:06:14;;;;;;;16.67;5.80;;;-1.60;99.90;;;;;;5080064;28;20808;-57
2022/02/27 02:08:40;;;;;;;13.90;6.03;;;-1.60;1.00;;;;;;5080015;28;20463;-61
2022/02/27 02:11:09;;;;;;;7.83;5.37;;;-1.60;1.00;;;;;;5079332;28;20458;-58
2022/02/27 02:13:36;;;;;;;11.87;6.97;;;-1.60;1.00;;;;;;5080009;28;20916;-61
2022/02/27 02:16:03;;;;;;;12.93;6.37;;;-1.60;99.90;;;;;;5079603;28;20493;-61
2022/02/27 02:18:30;;;;;;;16.80;7.07;;;-1.60;99.90;;;;;;5079275;28;20465;-61
2022/02/27 02:20:59;;;;;;;6.80;5.00;;;-1.60;99.90;;;;;;5079969;28;20465;-54
2022/02/27 02:23:26;;;;;;;14.97;6.70;;;-1.70;99.90;;;;;;5079899;28;20855;-61
2022/02/27 02:25:55;;;;;;;10.07;5.60;;;-1.70;44.60;;;;;;5079991;28;20457;-61
2022/02/27 02:28:24;;;;;;;9.57;5.57;;;-1.70;1.00;;;;;;5079637;28;20804;-61
2022/02/27 02:30:51;;;;;;;10.40;6.30;;;-1.60;1.00;;;;;;5079744;28;20949;-61
2022/02/27 02:33:18;;;;;;;9.67;5.90;;;-1.70;4.40;;;;;;5079782;28;20462;-61
2022/02/27 02:35:45;;;;;;;11.03;5.83;;;-1.70;1.00;;;;;;5079755;28;20542;-61
2022/02/27 02:38:14;;;;;;;10.00;5.10;;;-1.60;99.90;;;;;;5080183;28;20465;-61
2022/02/27 02:40:41;;;;;;;11.57;5.43;;;-1.70;1.00;;;;;;5078934;28;20904;-61
2022/02/27 02:43:12;;;;;;;10.63;5.77;;;-1.70;1.00;;;;;;5078996;28;20466;-61
2022/02/27 02:45:39;;;;;;;13.87;5.60;;;-1.70;99.90;;;;;;5077430;28;20462;-61
2022/02/27 02:48:06;;;;;;;9.00;5.73;;;-1.70;99.90;;;;;;5079709;28;20462;-60
2022/02/27 02:50:33;;;;;;;11.93;6.20;;;-1.80;1.00;;;;;;5078563;28;20469;-61
2022/02/27 02:53:00;;;;;;;14.23;7.00;;;-1.80;1.00;;;;;;5079453;28;20461;-61
2022/02/27 02:55:29;;;;;;;15.60;9.00;;;-1.80;99.90;;;;;;5078893;28;20495;-61
2022/02/27 02:57:56;;;;;;;29.87;13.70;;;-1.80;99.90;;;;;;5079464;28;20458;-61
2022/02/27 03:00:23;;;;;;;26.33;11.63;;;-1.80;1.00;;;;;;5078381;28;20485;-60
2022/02/27 03:02:51;;;;;;;18.83;10.80;;;-1.90;44.40;;;;;;5079001;28;20465;-60
2022/02/27 03:05:19;;;;;;;18.23;10.53;;;-1.90;99.90;;;;;;5078934;28;20469;-61
2022/02/27 03:07:46;;;;;;;13.13;8.77;;;-1.90;1.00;;;;;;5079168;28;20466;-57
2022/02/27 03:10:14;;;;;;;14.23;8.30;;;-1.90;28.70;;;;;;5078634;28;20789;-59
2022/02/27 03:12:42;;;;;;;15.10;7.73;;;-1.90;99.90;;;;;;5078712;28;20466;-55
2022/02/27 03:15:10;;;;;;;12.43;8.47;;;-1.90;99.90;;;;;;5078613;28;20485;-58
2022/02/27 03:17:37;;;;;;;18.03;8.50;;;-2.00;5.60;;;;;;5078860;28;21008;-60
2022/02/27 03:20:06;;;;;;;20.70;9.10;;;-1.90;1.00;;;;;;5079052;28;20481;-59
2022/02/27 03:22:33;;;;;;;17.90;9.67;;;-2.00;99.90;;;;;;5078063;28;20914;-61
2022/02/27 03:25:00;;;;;;;17.40;9.67;;;-2.00;99.90;;;;;;5078340;28;20515;-62
2022/02/27 03:27:26;;;;;;;13.60;8.00;;;-1.90;99.90;;;;;;5079003;28;20462;-61
2022/02/27 03:29:55;;;;;;;13.13;6.30;;;-1.90;99.90;;;;;;5079087;28;20465;-61
2022/02/27 03:32:22;;;;;;;15.83;7.43;;;-1.80;1.00;;;;;;5078457;28;20527;-61
2022/02/27 03:34:49;;;;;;;10.50;6.70;;;-1.90;99.90;;;;;;5078426;28;20461;-61
2022/02/27 03:37:16;;;;;;;10.40;6.40;;;-1.90;99.90;;;;;;5078477;28;20472;-61
2022/02/27 03:39:43;;;;;;;10.03;6.43;;;-2.00;1.00;;;;;;5078633;28;20814;-61
2022/02/27 03:42:10;;;;;;;14.10;5.10;;;-2.00;1.00;;;;;;5078563;28;20496;-61
2022/02/27 03:44:37;;;;;;;15.00;6.23;;;-2.00;1.00;;;;;;5078841;28;20528;-59
2022/02/27 03:47:06;;;;;;;10.90;6.20;;;-2.00;1.00;;;;;;5078525;28;20563;-61
2022/02/27 03:49:33;;;;;;;12.23;7.80;;;-2.00;1.00;;;;;;5079020;28;20765;-61
2022/02/27 03:52:00;;;;;;;10.87;6.17;;;-2.10;1.00;;;;;;5078457;28;20491;-60
2022/02/27 03:54:27;;;;;;;11.73;5.53;;;-2.10;1.00;;;;;;5078667;28;20762;-60
2022/02/27 03:56:54;;;;;;;13.40;5.87;;;-2.10;99.90;;;;;;5078180;28;20489;-61
2022/02/27 03:59:21;;;;;;;8.80;5.50;;;-2.20;99.90;;;;;;5078662;28;20804;-61
2022/02/27 04:01:48;;;;;;;9.77;6.30;;;-2.30;1.00;;;;;;5078790;28;20461;-61
2022/02/27 04:04:17;;;;;;;15.33;6.10;;;-2.20;1.00;;;;;;5077975;28;20480;-61
2022/02/27 04:06:44;;;;;;;14.93;6.57;;;-2.20;1.00;;;;;;5078260;28;20923;-61
2022/02/27 04:09:11;;;;;;;9.80;6.17;;;-2.30;1.00;;;;;;5075656;28;20544;-60
2022/02/27 04:11:38;;;;;;;12.23;7.00;;;-2.20;99.90;;;;;;5078811;28;20767;-61
2022/02/27 04:14:05;;;;;;;12.07;5.73;;;-2.20;99.90;;;;;;5077464;28;20476;-61
2022/02/27 04:16:32;;;;;;;15.53;5.50;;;-2.20;99.90;;;;;;5077932;28;20502;-61
2022/02/27 04:19:02;;;;;;;14.73;6.73;;;-2.20;1.00;;;;;;5077609;28;20465;-61
2022/02/27 04:21:30;;;;;;;14.00;7.00;;;-2.20;95.40;;;;;;5078264;28;20457;-61
2022/02/27 04:23:57;;;;;;;10.50;6.00;;;-2.20;1.00;;;;;;5077945;28;20458;-61
2022/02/27 04:26:24;;;;;;;11.23;5.30;;;-2.20;1.00;;;;;;5078258;28;20458;-55
2022/02/27 04:28:51;;;;;;;13.83;6.10;;;-2.20;1.00;;;;;;5077760;28;20817;-58
2022/02/27 04:31:18;;;;;;;13.83;6.03;;;-2.20;99.90;;;;;;5077771;28;20458;-60
2022/02/27 04:33:46;;;;;;;10.47;6.27;;;-2.20;99.90;;;;;;5077853;28;20453;-60
2022/02/27 04:36:13;;;;;;;13.53;6.17;;;-2.20;99.90;;;;;;5077709;28;20496;-60
2022/02/27 04:38:41;;;;;;;12.70;6.50;;;-2.30;1.00;;;;;;5077539;28;20825;-56
2022/02/27 04:41:08;;;;;;;10.13;6.23;;;-2.30;99.90;;;;;;5077867;28;20804;-56
2022/02/27 04:43:35;;;;;;;11.97;5.63;;;-2.30;1.00;;;;;;5077879;28;20462;-59
2022/02/27 04:46:02;;;;;;;11.20;6.40;;;-2.30;1.00;;;;;;5077200;28;20465;-59
2022/02/27 04:48:29;;;;;;;17.43;7.23;;;-2.30;1.00;;;;;;5077187;28;20473;-59
2022/02/27 04:50:56;;;;;;;12.53;6.60;;;-2.40;99.90;;;;;;5077536;28;20457;-58
2022/02/27 04:53:26;;;;;;;12.80;6.33;;;-2.40;99.90;;;;;;5077777;28;20507;-59
2022/02/27 04:55:54;;;;;;;9.07;6.20;;;-2.30;99.90;;;;;;5077256;28;20494;-55
2022/02/27 04:58:21;;;;;;;13.07;6.43;;;-2.40;99.90;;;;;;5078140;28;20814;-61
2022/02/27 05:00:48;;;;;;;12.70;6.20;;;-2.40;1.00;;;;;;5077299;28;20968;-61
2022/02/27 05:03:15;;;;;;;11.87;7.30;;;-2.40;1.00;;;;;;5077477;28;20519;-61
2022/02/27 05:05:43;;;;;;;10.00;6.23;;;-2.40;99.90;;;;;;5076906;28;20515;-61
2022/02/27 05:08:10;;;;;;;11.73;6.20;;;-2.40;99.90;;;;;;5077997;28;20811;-61
2022/02/27 05:10:37;;;;;;;10.63;6.07;;;-2.40;1.00;;;;;;5077088;28;20776;-61
2022/02/27 05:13:06;;;;;;;12.53;5.50;;;-2.50;1.00;;;;;;5077454;28;20972;-61
2022/02/27 05:15:35;;;;;;;11.00;5.80;;;-2.40;1.00;;;;;;5077013;28;20462;-61
2022/02/27 05:18:02;;;;;;;15.73;6.07;;;-2.40;1.00;;;;;;5076187;28;20511;-61
2022/02/27 05:20:29;;;;;;;15.37;6.17;;;-2.30;99.90;;;;;;5076770;28;20462;-60
2022/02/27 05:22:56;;;;;;;15.17;6.83;;;-2.40;1.00;;;;;;5077409;28;20465;-59
2022/02/27 05:25:24;;;;;;;8.20;5.80;;;-2.40;1.00;;;;;;5077492;28;20495;-60
2022/02/27 05:27:53;;;;;;;16.30;6.80;;;-2.30;2.90;;;;;;5081131;28;20465;-60
2022/02/27 05:30:24;;;;;;;16.50;6.03;;;-2.20;99.90;;;;;;5081371;28;20465;-60
2022/02/27 05:32:51;;;;;;;12.30;5.93;;;-2.10;1.00;;;;;;5081561;28;20472;-61
2022/02/27 05:35:18;;;;;;;10.53;6.00;;;-2.00;1.00;;;;;;5081722;28;20465;-60
2022/02/27 05:37:45;;;;;;;9.53;6.33;;;-2.00;29.00;;;;;;5080897;28;21014;-59
2022/02/27 05:40:13;;;;;;;9.80;6.00;;;-2.00;18.10;;;;;;5081405;28;20466;-60
2022/02/27 05:42:40;;;;;;;13.37;6.70;;;-2.10;1.00;;;;;;5080327;28;20473;-60
2022/02/27 05:45:08;;;;;;;12.60;5.93;;;-2.10;1.00;;;;;;5080981;28;20523;-61
2022/02/27 05:47:37;;;;;;;19.23;6.80;;;-2.10;99.90;;;;;;5080519;28;20551;-60
2022/02/27 05:50:04;;;;;;;9.67;6.17;;;-2.10;34.30;;;;;;5081405;28;20461;-56
2022/02/27 05:52:31;;;;;;;10.40;6.20;;;-2.20;99.90;;;;;;5079952;28;20457;-60
2022/02/27 05:54:58;;;;;;;16.43;6.30;;;-2.30;1.00;;;;;;5081005;28;20478;-61
2022/02/27 05:57:25;;;;;;;13.90;6.50;;;-2.40;56.10;;;;;;5080749;28;20546;-60
2022/02/27 05:59:52;;;;;;;11.10;6.53;;;-2.40;1.00;;;;;;5080504;28;20461;-61
2022/02/27 06:02:19;;;;;;;9.73;6.80;;;-2.30;1.00;;;;;;5081185;28;20956;-61
2022/02/27 06:04:48;;;;;;;7.50;4.90;;;-2.40;99.90;;;;;;5080602;28;20465;-60
2022/02/27 06:07:15;;;;;;;12.97;6.03;;;-2.40;1.00;;;;;;5080680;28;20548;-61
2022/02/27 06:09:42;;;;;;;10.03;5.40;;;-2.40;99.90;;;;;;5080332;28;20747;-61
2022/02/27 06:12:10;;;;;;;10.43;5.67;;;-2.50;99.90;;;;;;5080282;28;20461;-59
2022/02/27 06:14:37;;;;;;;12.93;6.27;;;-2.50;1.00;;;;;;5080625;28;20812;-60
2022/02/27 06:17:04;;;;;;;14.13;6.03;;;-2.60;1.00;;;;;;5080210;28;20501;-60
2022/02/27 06:19:31;;;;;;;10.93;6.50;;;-2.60;1.00;;;;;;5080325;28;20476;-54
2022/02/27 06:22:00;;;;;;;9.80;6.80;;;-2.50;1.00;;;;;;5079600;28;20515;-60
2022/02/27 06:24:28;;;;;;;9.77;5.40;;;-2.60;1.00;;;;;;5080102;28;20879;-58
2022/02/27 06:26:55;;;;;;;8.87;5.73;;;-2.50;99.90;;;;;;5078576;28;20497;-58
2022/02/27 06:29:23;;;;;;;11.87;5.60;;;-2.60;1.00;;;;;;5079742;28;20457;-60
2022/02/27 06:31:50;;;;;;;12.20;5.57;;;-2.50;1.00;;;;;;5079845;28;20588;-60
2022/02/27 06:34:17;;;;;;;8.87;5.33;;;-2.50;99.90;;;;;;5080219;28;20891;-56
2022/02/27 06:36:44;;;;;;;9.00;5.50;;;-2.50;99.90;;;;;;5078576;28;20484;-56
2022/02/27 06:39:13;;;;;;;15.60;6.50;;;-2.50;62.70;;;;;;5079547;28;20468;-59
2022/02/27 06:41:40;;;;;;;16.13;6.13;;;-2.40;99.90;;;;;;5079713;28;20461;-57
2022/02/27 06:44:07;;;;;;;11.80;5.20;;;-2.40;99.90;;;;;;5079926;28;20461;-57
2022/02/27 06:46:34;;;;;;;12.13;5.27;;;-2.30;1.00;;;;;;5079354;28;20899;-58
2022/02/27 06:49:01;;;;;;;11.90;5.00;;;-2.30;1.00;;;;;;5078804;28;20487;-59
2022/02/27 06:51:28;;;;;;;9.73;6.33;;;-2.30;56.90;;;;;;5079864;28;20560;-60
2022/02/27 06:53:55;;;;;;;10.03;5.57;;;-2.30;1.00;;;;;;5079129;28;20518;-59
2022/02/27 06:56:23;;;;;;;10.73;5.63;;;-2.20;99.90;;;;;;5079543;28;21004;-60
2022/02/27 06:58:50;;;;;;;8.03;6.03;;;-2.30;1.00;;;;;;5079194;28;20468;-60
2022/02/27 07:01:18;;;;;;;9.07;5.90;;;-2.20;99.90;;;;;;5079242;28;20887;-60
2022/02/27 07:03:45;;;;;;;10.30;6.47;;;-2.20;1.00;;;;;;5079014;28;20552;-58
2022/02/27 07:06:12;;;;;;;11.43;6.40;;;-2.20;1.00;;;;;;5079808;28;20741;-60
2022/02/27 07:08:39;;;;;;;11.67;5.53;;;-2.20;1.00;;;;;;5078994;28;20470;-60
2022/02/27 07:11:06;;;;;;;9.97;6.80;;;-2.10;1.00;;;;;;5079483;28;20554;-60
2022/02/27 07:13:35;;;;;;;12.87;6.67;;;-2.10;1.00;;;;;;5079057;28;20473;-60
2022/02/27 07:16:02;;;;;;;9.47;6.60;;;-2.00;1.00;;;;;;5078916;28;20511;-60
2022/02/27 07:18:29;;;;;;;12.77;6.80;;;-1.90;1.00;;;;;;5078803;28;20460;-60
2022/02/27 07:20:57;;;;;;;9.70;7.10;;;-1.80;99.90;;;;;;5080800;28;20895;-61
2022/02/27 07:23:24;;;;;;;12.30;6.30;;;-1.60;99.90;;;;;;5079253;28;20488;-60
2022/02/27 07:25:51;;;;;;;13.57;7.97;;;-1.60;99.90;;;;;;5078353;28;20461;-60
2022/02/27 07:28:18;;;;;;;17.63;8.23;;;-1.30;1.00;;;;;;5079613;28;20458;-59
2022/02/27 07:30:46;;;;;;;18.00;7.57;;;-1.20;3.30;;;;;;5078578;28;20886;-60
2022/02/27 07:33:16;;;;;;;12.57;7.90;;;-0.90;70.40;;;;;;5078748;28;20781;-58
2022/02/27 07:35:43;;;;;;;15.00;8.03;;;-0.70;99.90;;;;;;5079007;28;20760;-59
2022/02/27 07:38:10;;;;;;;10.27;7.40;;;-0.50;99.90;;;;;;5078681;28;20490;-61
2022/02/27 07:40:37;;;;;;;16.67;6.30;;;-0.10;99.90;;;;;;5078383;28;20446;-60
2022/02/27 07:43:04;;;;;;;8.57;6.00;;;0.20;99.90;;;;;;5060629;28;20460;-61
2022/02/27 07:45:31;;;;;;;15.70;7.87;;;0.50;94.20;;;;;;5077565;28;20771;-61
2022/02/27 07:48:00;;;;;;;11.53;6.97;;;0.90;99.90;;;;;;5076184;28;20735;-61
2022/02/27 07:50:30;;;;;;;17.73;8.80;;;1.10;1.00;;;;;;5077801;28;20764;-62
2022/02/27 07:52:57;;;;;;;10.87;6.00;;;1.50;99.90;;;;;;5077152;28;20457;-62
2022/02/27 07:55:25;;;;;;;9.37;5.57;;;1.90;99.90;;;;;;5078014;28;20538;-62
2022/02/27 07:57:52;;;;;;;8.20;5.53;;;2.20;1.00;;;;;;5076583;28;20489;-61
2022/02/27 08:00:19;;;;;;;8.03;4.87;;;2.50;1.00;;;;;;5077746;28;20515;-61
2022/02/27 08:02:46;;;;;;;8.60;4.43;;;2.80;1.00;;;;;;5077012;28;20462;-58
2022/02/27 08:05:15;;;;;;;8.30;4.83;;;3.10;1.00;;;;;;5077668;28;20457;-61
2022/02/27 08:07:42;;;;;;;9.93;4.83;;;3.40;1.00;;;;;;5077483;28;20461;-61
2022/02/27 08:10:11;;;;;;;8.30;4.90;;;3.60;1.00;;;;;;5077529;28;20465;-61
2022/02/27 08:12:45;;;;;;;7.87;5.30;;;3.80;1.00;;;;;;5077222;28;20515;-62
2022/02/27 08:15:14;;;;;;;6.60;4.67;;;4.10;1.00;;;;;;5077449;28;20552;-62
2022/02/27 08:17:41;;;;;;;9.00;5.30;;;4.30;1.00;;;;;;5077045;28;20802;-63
2022/02/27 08:20:10;;;;;;;8.60;4.40;;;4.60;1.00;;;;;;5076468;28;20926;-63
2022/02/27 08:22:39;;;;;;;11.97;5.47;;;4.90;1.00;;;;;;5076382;28;20465;-63
2022/02/27 08:25:11;;;;;;;10.27;6.20;;;5.10;1.00;;;;;;5076770;28;20501;-63
2022/02/27 08:27:39;;;;;;;4.97;4.47;;;5.30;1.00;;;;;;5076621;28;20887;-63
2022/02/27 08:30:08;;;;;;;9.63;5.60;;;5.30;1.00;;;;;;5076456;28;20514;-63
2022/02/27 08:32:37;;;;;;;10.23;4.77;;;5.40;1.00;;;;;;5076226;28;20512;-63
2022/02/27 08:35:06;;;;;;;5.80;4.20;;;5.60;1.00;;;;;;5076680;28;20465;-63
2022/02/27 08:37:32;;;;;;;6.23;4.30;;;5.80;1.00;;;;;;5076261;28;20489;-63
2022/02/27 08:40:01;;;;;;;7.70;4.37;;;6.00;1.00;;;;;;5077199;28;20469;-62
2022/02/27 08:42:30;;;;;;;8.90;4.43;;;6.20;1.00;;;;;;5075742;28;21104;-63
2022/02/27 08:45:00;;;;;;;5.63;4.27;;;6.30;1.00;;;;;;5073940;28;20895;-62
2022/02/27 08:47:27;;;;;;;8.13;4.60;;;6.50;99.90;;;;;;5064988;28;20461;-62
2022/02/27 08:49:54;;;;;;;10.97;4.30;;;6.60;99.90;;;;;;5077086;28;20465;-62
2022/02/27 08:52:22;;;;;;;9.90;4.20;;;6.60;99.90;;;;;;5077044;28;20462;-62
2022/02/27 08:54:49;;;;;;;13.10;4.13;;;6.60;99.90;;;;;;5075419;28;20469;-61
2022/02/27 08:57:17;;;;;;;7.10;4.30;;;6.60;99.90;;;;;;5076442;28;20956;-61
2022/02/27 08:59:44;;;;;;;8.03;3.70;;;6.80;99.90;;;;;;5076525;28;20469;-61
2022/02/27 09:02:11;;;;;;;5.90;3.37;;;7.00;99.90;;;;;;5077001;28;20466;-61
2022/02/27 09:04:38;;;;;;;4.93;3.93;;;7.10;99.90;;;;;;5075651;28;20469;-61
2022/02/27 09:07:05;;;;;;;5.93;3.80;;;7.40;99.90;;;;;;5076891;28;20556;-61
2022/02/27 09:09:32;;;;;;;8.67;3.50;;;7.30;99.90;;;;;;5076567;28;20480;-61
2022/02/27 09:11:59;;;;;;;5.33;3.70;;;7.40;99.90;;;;;;5077220;28;20853;-60
2022/02/27 09:14:30;;;;;;;6.30;3.83;;;7.30;99.90;;;;;;5075720;28;20465;-58
2022/02/27 09:16:59;;;;;;;6.90;4.20;;;7.50;99.90;;;;;;5075375;28;20574;-60
2022/02/27 09:19:28;;;;;;;8.43;3.77;;;7.50;99.90;;;;;;5076279;28;20475;-58
2022/02/27 09:21:55;;;;;;;7.13;3.67;;;7.70;99.90;;;;;;5076842;28;20883;-59
2022/02/27 09:24:22;;;;;;;5.10;3.07;;;8.00;99.90;;;;;;5076053;28;20462;-60
2022/02/27 09:26:51;;;;;;;6.00;3.57;;;8.20;99.90;;;;;;5076442;28;20473;-60
2022/02/27 09:29:18;;;;;;;7.63;3.90;;;8.50;99.90;;;;;;5076429;28;20465;-60
2022/02/27 09:31:49;;;;;;;5.87;3.60;;;8.60;99.90;;;;;;5075391;28;20894;-58
2022/02/27 09:34:16;;;;;;;4.50;3.13;;;8.70;99.90;;;;;;5075828;28;20449;-58
2022/02/27 09:36:43;;;;;;;4.57;3.40;;;8.70;99.90;;;;;;5074273;28;20465;-58
2022/02/27 09:39:10;;;;;;;4.53;2.97;;;8.30;99.90;;;;;;5075326;28;20519;-60
2022/02/27 09:41:37;;;;;;;4.53;3.20;;;8.30;99.90;;;;;;5074580;28;20461;-60
2022/02/27 09:44:06;;;;;;;5.80;3.50;;;8.60;99.90;;;;;;5076182;28;20461;-60
2022/02/27 09:46:34;;;;;;;3.93;3.10;;;8.80;99.90;;;;;;5074939;28;20469;-57
2022/02/27 09:49:02;;;;;;;6.30;3.33;;;8.80;99.90;;;;;;5076102;28;20453;-59
2022/02/27 09:51:29;;;;;;;6.37;3.23;;;8.70;99.90;;;;;;5075989;28;20469;-58
2022/02/27 09:53:56;;;;;;;4.70;3.30;;;8.40;99.90;;;;;;5076540;28;20526;-53
2022/02/27 09:56:23;;;;;;;7.27;5.60;;;8.30;99.90;;;;;;5075434;28;20466;-58
2022/02/27 09:58:50;;;;;;;5.37;3.97;;;8.20;99.90;;;;;;5074735;28;20579;-60
2022/02/27 10:01:18;;;;;;;3.83;3.43;;;8.40;99.90;;;;;;5074599;28;20465;-59
2022/02/27 10:03:47;;;;;;;9.63;5.90;;;8.50;99.90;;;;;;5075549;28;20457;-58
2022/02/27 10:06:17;;;;;;;4.37;2.90;;;8.40;99.90;;;;;;5075545;28;20469;-57
2022/02/27 10:08:49;;;;;;;7.03;4.70;;;8.70;99.90;;;;;;5072156;28;20457;-56
2022/02/27 10:11:17;;;;;;;4.43;2.70;;;8.80;99.90;;;;;;5075918;28;20594;-54
2022/02/27 10:13:53;;;;;;;6.10;4.40;;;8.80;99.90;;;;;;5079939;28;20461;-56
2022/02/27 10:16:24;;;;;;;4.20;3.50;;;9.00;99.90;;;;;;5078984;28;20803;-55
2022/02/27 10:18:52;;;;;;;4.07;3.40;;;9.30;99.90;;;;;;5078792;28;20492;-57
2022/02/27 10:21:23;;;;;;;4.67;3.10;;;9.60;99.90;;;;;;5078765;28;20782;-57
2022/02/27 10:23:59;;;;;;;6.30;3.50;;;9.60;99.90;;;;;;5079473;28;20465;-57
2022/02/27 10:26:28;;;;;;;4.57;3.10;;;9.70;99.90;;;;;;5078910;28;20893;-54
2022/02/27 10:29:07;;;;;;;9.60;6.03;;;9.90;99.90;;;;;;5078803;28;20469;-59
2022/02/27 10:31:34;;;;;;;3.97;3.37;;;10.10;99.90;;;;;;5075408;28;20910;-59
2022/02/27 10:34:12;;;;;;;7.20;4.43;;;10.50;99.90;;;;;;5079616;28;20514;-59
2022/02/27 10:36:58;;;;;;;3.50;3.20;;;10.70;99.90;;;;;;5079386;28;20789;-58
2022/02/27 10:39:34;;;;;;;5.30;4.53;;;10.40;99.90;;;;;;5078740;28;20465;-56
2022/02/27 10:42:12;;;;;;;6.20;4.83;;;10.20;99.90;;;;;;5079259;28;20457;-55
2022/02/27 10:44:41;;;;;;;3.70;3.20;;;10.10;99.90;;;;;;5075304;28;20462;-55
2022/02/27 10:47:19;;;;;;;4.30;2.83;;;10.10;99.90;;;;;;5073351;28;20457;-54
2022/02/27 10:49:47;;;;;;;5.20;4.00;;;10.10;99.90;;;;;;5077823;28;20467;-56
2022/02/27 10:52:19;;;;;;;3.60;2.80;;;10.30;99.90;;;;;;5077382;28;20510;-54
2022/02/27 10:54:48;;;;;;;3.87;3.07;;;10.50;99.90;;;;;;5078741;28;21286;-55
2022/02/27 10:57:27;;;;;;;5.60;3.47;;;10.50;99.90;;;;;;5079026;28;20454;-55
2022/02/27 10:59:55;;;;;;;5.23;3.40;;;10.10;99.90;;;;;;5078192;28;20461;-52
2022/02/27 11:02:24;;;;;;;5.53;4.40;;;10.40;99.90;;;;;;5078486;28;20462;-55
2022/02/27 11:04:52;;;;;;;3.83;3.10;;;10.40;99.90;;;;;;5077579;28;20903;-55
2022/02/27 11:07:20;;;;;;;3.40;2.60;;;10.30;99.90;;;;;;5077849;28;20503;-58
2022/02/27 11:09:47;;;;;;;5.07;3.10;;;10.10;99.90;;;;;;5078310;28;20871;-50
2022/02/27 11:12:21;;;;;;;4.43;3.23;;;10.00;99.90;;;;;;5078953;28;20518;-50
2022/02/27 11:14:48;;;;;;;3.57;2.63;;;9.90;99.90;;;;;;5078648;28;20469;-53
2022/02/27 11:17:16;;;;;;;3.30;2.87;;;10.20;99.90;;;;;;5077364;28;20955;-55
2022/02/27 11:19:44;;;;;;;5.23;2.63;;;10.20;99.90;;;;;;5082124;28;20572;-56
2022/02/27 11:22:12;;;;;;;4.30;2.90;;;10.60;99.90;;;;;;5084220;28;20769;-58
2022/02/27 11:24:42;;;;;;;3.90;3.10;;;11.10;99.90;;;;;;5077925;28;20465;-59
2022/02/27 11:27:11;;;;;;;4.73;2.80;;;10.90;99.90;;;;;;5077965;28;20461;-58
2022/02/27 11:29:38;;;;;;;6.80;2.87;;;11.20;99.90;;;;;;5078018;28;20464;-56
2022/02/27 11:32:06;;;;;;;3.50;2.27;;;11.30;99.90;;;;;;5078548;28;20515;-56
2022/02/27 11:34:43;;;;;;;4.57;3.20;;;11.30;99.90;;;;;;5078242;28;20907;-55
2022/02/27 11:37:10;;;;;;;3.57;2.77;;;10.90;99.90;;;;;;5078010;28;20456;-54
2022/02/27 11:42:54;;;;;;;4.60;3.07;;;10.70;99.90;;;;;;5077828;28;20527;-55
2022/02/27 11:45:27;;;;;;;3.13;2.83;;;10.90;99.90;;;;;;5076943;28;20814;-54
2022/02/27 11:48:00;;;;;;;5.23;3.10;;;10.70;99.90;;;;;;5078428;28;20875;-53
2022/02/27 11:50:31;;;;;;;4.17;3.50;;;10.60;99.90;;;;;;5076994;28;20463;-55
2022/02/27 11:52:58;;;;;;;4.10;3.10;;;10.60;99.90;;;;;;5076906;28;20552;-52
2022/02/27 11:55:41;;;;;;;5.00;3.00;;;10.50;99.90;;;;;;5077508;28;20489;-49
2022/02/27 11:58:41;;;;;;;6.43;3.20;;;10.80;99.90;;;;;;5065189;28;20493;-53
2022/02/27 12:01:11;;;;;;;4.70;2.80;;;11.10;99.90;;;;;;5076679;28;20511;-54
2022/02/27 12:03:40;;;;;;;4.20;3.47;;;11.20;99.90;;;;;;5076740;28;20887;-52
2022/02/27 12:06:10;;;;;;;5.10;3.40;;;11.20;99.90;;;;;;5074963;28;20463;-52
2022/02/27 12:08:41;;;;;;;4.53;3.37;;;11.40;99.90;;;;;;5076596;28;20534;-51
2022/02/27 12:11:38;;;;;;;5.67;3.40;;;11.30;99.90;;;;;;5076702;28;20457;-50
2022/02/27 12:14:09;;;;;;;4.00;3.30;;;11.40;99.90;;;;;;5076236;28;20961;-54
2022/02/27 12:16:39;;;;;;;4.20;3.33;;;11.40;99.90;;;;;;5076326;28;20481;-51
2022/02/27 12:19:22;;;;;;;4.97;2.80;;;11.70;99.90;;;;;;5076195;28;20493;-52
2022/02/27 12:21:52;;;;;;;4.40;3.40;;;11.50;99.90;;;;;;5076737;28;20450;-54
2022/02/27 12:24:26;;;;;;;4.07;2.77;;;11.50;99.90;;;;;;5076734;28;20457;-51
2022/02/27 12:26:55;;;;;;;3.37;3.07;;;11.50;99.90;;;;;;5077141;28;20463;-54
2022/02/27 12:29:29;;;;;;;4.53;2.73;;;11.50;99.90;;;;;;5077270;28;20454;-50
2022/02/27 12:32:02;;;;;;;3.03;2.73;;;11.40;99.90;;;;;;5077178;28;20925;-49
2022/02/27 12:34:30;;;;;;;3.53;3.13;;;11.50;99.90;;;;;;5075662;28;20457;-52
2022/02/27 12:36:59;;;;;;;3.60;3.10;;;11.50;99.90;;;;;;5076196;28;20453;-51
2022/02/27 12:39:26;;;;;;;5.40;3.67;;;11.80;99.90;;;;;;5070177;28;20492;-53
2022/02/27 12:41:55;;;;;;;3.43;2.90;;;11.70;99.90;;;;;;5076012;28;20462;-54
2022/02/27 12:44:32;;;;;;;3.90;3.23;;;11.50;99.90;;;;;;5075616;28;20497;-52
2022/02/27 12:47:02;;;;;;;3.00;2.80;;;11.30;99.90;;;;;;5074290;28;20856;-52
2022/02/27 12:52:23;;;;;;;3.80;2.90;;;11.30;99.90;;;;;;5075742;28;20890;-52
2022/02/27 12:55:02;;;;;;;3.37;2.70;;;11.20;99.90;;;;;;5069804;28;20511;-55
2022/02/27 12:57:29;;;;;;;3.50;3.20;;;10.90;99.90;;;;;;5074468;28;20484;-54
2022/02/27 12:59:58;;;;;;;3.23;2.93;;;11.00;99.90;;;;;;5075817;28;20562;-51